Time;durP1;ratioP1;P1;durP2;ratioP2;P2;SDS_P1;SDS_P2;PMS_P1;PMS_P2;Temp;Humidity;BMP_temperature;BMP_pressure;BME280_temperature;BME280_humidity;BME280_pressure;Samples;Min_cycle;Max_cycle;Signal;HPM_P1;HPM_P2
2024/04/24 00:02:25;;;;;;;;;;;5.30;68.20;;;;;;5479223;26;20363;-62
2024/04/24 00:04:53;;;;;;;;;;;5.30;68.20;;;;;;5476978;26;19928;-63
2024/04/24 00:07:22;;;;;;;;;;;5.30;68.30;;;;;;5482380;26;19936;-62
2024/04/24 00:09:51;;;;;;;;;;;5.30;68.40;;;;;;5483730;26;20488;-63
2024/04/24 00:12:19;;;;;;;;;;;5.30;68.40;;;;;;5478835;26;20018;-62
2024/04/24 00:14:51;;;;;;;;;;;5.30;68.30;;;;;;5477863;26;19928;-63
2024/04/24 00:17:19;;;;;;;;;;;5.20;68.50;;;;;;5482961;26;19935;-63
2024/04/24 00:19:48;;;;;;;;;;;5.20;68.80;;;;;;5479168;26;20728;-63
2024/04/24 00:22:17;;;;;;;;;;;5.10;69.00;;;;;;5483422;26;20266;-68
2024/04/24 00:24:45;;;;;;;;;;;5.00;69.00;;;;;;5481029;26;19939;-68
2024/04/24 00:27:14;;;;;;;;;;;5.00;69.20;;;;;;5483023;26;19936;-68
2024/04/24 00:29:43;;;;;;;;;;;5.00;69.00;;;;;;5483124;26;19968;-68
2024/04/24 00:32:14;;;;;;;;;;;5.00;69.20;;;;;;5478836;26;19928;-68
2024/04/24 00:34:43;;;;;;;;;;;4.90;69.20;;;;;;5482894;26;19928;-67
2024/04/24 00:37:11;;;;;;;;;;;4.90;69.30;;;;;;5475166;26;19928;-67
2024/04/24 00:39:40;;;;;;;;;;;4.90;69.30;;;;;;5479250;26;19928;-67
2024/04/24 00:42:19;;;;;;;;;;;4.90;69.50;;;;;;5481866;26;19936;-68
2024/04/24 00:44:47;;;;;;;;;;;4.80;69.70;;;;;;5481459;26;19928;-68
2024/04/24 00:47:19;;;;;;;;;;;4.80;69.90;;;;;;5480653;26;19935;-66
2024/04/24 00:49:49;;;;;;;;;;;4.70;70.10;;;;;;5478292;26;19932;-67
2024/04/24 00:52:18;;;;;;;;;;;4.70;70.30;;;;;;5480941;26;19929;-66
2024/04/24 00:54:46;;;;;;;;;;;4.80;70.30;;;;;;5480645;26;20004;-67
2024/04/24 00:57:15;;;;;;;;;;;4.70;70.40;;;;;;5471648;26;19944;-68
2024/04/24 00:59:44;;;;;;;;;;;4.80;70.40;;;;;;5479034;26;19938;-66
2024/04/24 01:02:12;;;;;;;;;;;4.80;70.70;;;;;;5481858;26;20024;-68
2024/04/24 01:04:44;;;;;;;;;;;4.70;70.90;;;;;;5481631;26;19935;-68
2024/04/24 01:07:12;;;;;;;;;;;4.80;71.10;;;;;;5479725;26;19936;-68
2024/04/24 01:09:41;;;;;;;;;;;4.80;71.20;;;;;;5483097;26;19931;-67
2024/04/24 01:12:10;;;;;;;;;;;4.80;71.30;;;;;;5482171;26;19940;-68
2024/04/24 01:14:36;;;;;;;;;;;4.70;71.40;;;;;;5479890;26;20529;-68
2024/04/24 01:17:06;;;;;;;;;;;4.70;71.40;;;;;;5467670;26;19935;-68
2024/04/24 01:19:42;;;;;;;;;;;4.70;71.60;;;;;;5443093;26;19928;-67
2024/04/24 01:22:15;;;;;;;;;;;4.80;71.60;;;;;;5480864;26;19928;-68
2024/04/24 01:24:47;;;;;;;;;;;4.70;71.60;;;;;;5481391;26;19958;-68
2024/04/24 01:27:18;;;;;;;;;;;4.80;71.60;;;;;;5481477;26;20376;-68
2024/04/24 01:29:47;;;;;;;;;;;4.80;71.70;;;;;;5482377;26;19935;-66
2024/04/24 01:32:16;;;;;;;;;;;4.80;71.70;;;;;;5478811;26;19935;-66
2024/04/24 01:34:44;;;;;;;;;;;4.90;71.50;;;;;;5481220;26;19928;-69
2024/04/24 01:37:13;;;;;;;;;;;4.80;71.70;;;;;;5481271;26;20380;-68
2024/04/24 01:39:41;;;;;;;;;;;4.80;71.80;;;;;;5478353;26;19996;-68
2024/04/24 01:42:10;;;;;;;;;;;4.80;71.90;;;;;;5476325;26;20008;-62
2024/04/24 01:44:41;;;;;;;;;;;4.80;71.90;;;;;;5479119;26;19995;-63
2024/04/24 01:47:10;;;;;;;;;;;4.80;72.00;;;;;;5480131;26;19972;-62
2024/04/24 01:49:39;;;;;;;;;;;4.80;72.00;;;;;;5481082;26;19993;-63
2024/04/24 01:52:07;;;;;;;;;;;4.90;72.00;;;;;;5480014;26;19928;-62
2024/04/24 01:54:36;;;;;;;;;;;4.90;72.10;;;;;;5478098;26;19978;-63
2024/04/24 01:57:05;;;;;;;;;;;4.90;72.40;;;;;;5473608;26;19999;-62
2024/04/24 01:59:31;;;;;;;;;;;4.80;72.60;;;;;;5478316;26;19932;-63
2024/04/24 02:02:02;;;;;;;;;;;4.80;72.70;;;;;;5479501;26;19939;-63
2024/04/24 02:04:31;;;;;;;;;;;4.80;72.90;;;;;;5483240;26;20032;-63
2024/04/24 02:06:59;;;;;;;;;;;4.80;72.80;;;;;;5483662;26;19935;-63
2024/04/24 02:09:28;;;;;;;;;;;4.80;72.90;;;;;;5480619;26;19939;-61
2024/04/24 02:11:58;;;;;;;;;;;4.90;72.90;;;;;;5477527;26;19931;-63
2024/04/24 02:14:29;;;;;;;;;;;4.90;72.90;;;;;;5482918;26;19928;-63
2024/04/24 02:16:57;;;;;;;;;;;4.80;73.10;;;;;;5466182;26;19928;-63
2024/04/24 02:19:29;;;;;;;;;;;4.90;73.30;;;;;;5478201;26;19940;-62
2024/04/24 02:21:58;;;;;;;;;;;4.90;73.20;;;;;;5479685;26;19940;-63
2024/04/24 02:27:07;;;;;;;;;;;4.90;73.50;;;;;;5475239;26;19936;-63
2024/04/24 02:30:08;;;;;;;;;;;5.00;73.40;;;;;;5480537;26;19935;-64
2024/04/24 02:32:37;;;;;;;;;;;5.00;73.60;;;;;;5437566;26;19928;-63
2024/04/24 02:35:08;;;;;;;;;;;5.00;73.50;;;;;;5479534;26;19928;-63
2024/04/24 02:37:37;;;;;;;;;;;5.00;73.50;;;;;;5476668;26;20431;-63
2024/04/24 02:40:06;;;;;;;;;;;5.00;73.80;;;;;;5486561;25;20255;-63
2024/04/24 02:42:50;;;;;;;;;;;4.90;74.20;;;;;;5477831;26;20344;-63
2024/04/24 02:45:30;;;;;;;;;;;4.90;74.50;;;;;;5478498;26;20359;-62
2024/04/24 02:47:59;;;;;;;;;;;4.80;74.60;;;;;;5479696;26;19936;-63
2024/04/24 02:50:30;;;;;;;;;;;4.80;74.80;;;;;;5472411;26;19932;-63
2024/04/24 02:52:59;;;;;;;;;;;4.80;74.80;;;;;;5479910;26;20260;-62
2024/04/24 02:55:28;;;;;;;;;;;4.80;74.60;;;;;;5470623;26;20054;-61
2024/04/24 02:57:56;;;;;;;;;;;4.80;74.50;;;;;;5464065;26;20017;-62
2024/04/24 03:00:25;;;;;;;;;;;4.80;74.70;;;;;;5473089;26;20052;-64
2024/04/24 03:02:54;;;;;;;;;;;4.80;74.90;;;;;;5475026;26;19999;-62
2024/04/24 03:05:22;;;;;;;;;;;4.80;75.00;;;;;;5471576;26;19940;-62
2024/04/24 03:11:25;;;;;;;;;;;4.70;75.30;;;;;;5474245;26;19935;-61
2024/04/24 03:14:01;;;;;;;;;;;4.70;75.60;;;;;;5465171;26;21933;-62
2024/04/24 03:16:30;;;;;;;;;;;4.70;75.60;;;;;;5474351;26;19928;-62
2024/04/24 03:18:59;;;;;;;;;;;4.80;76.10;;;;;;5478283;26;20357;-62
2024/04/24 03:21:28;;;;;;;;;;;4.80;76.00;;;;;;5474472;26;19956;-62
2024/04/24 03:24:32;;;;;;;;;;;4.80;76.20;;;;;;5470956;26;19935;-62
2024/04/24 03:27:06;;;;;;;;;;;4.80;76.20;;;;;;5454017;26;19935;-62
2024/04/24 03:29:35;;;;;;;;;;;4.80;76.30;;;;;;5476261;26;19956;-62
2024/04/24 03:32:04;;;;;;;;;;;4.80;76.30;;;;;;5472262;26;20371;-62
2024/04/24 03:34:33;;;;;;;;;;;4.70;76.40;;;;;;5477889;26;20545;-62
2024/04/24 03:37:01;;;;;;;;;;;4.80;76.40;;;;;;5475248;26;19928;-62
2024/04/24 03:39:30;;;;;;;;;;;4.80;76.40;;;;;;5473458;26;19940;-62
2024/04/24 03:41:59;;;;;;;;;;;4.80;76.40;;;;;;5479226;26;19939;-62
2024/04/24 03:44:31;;;;;;;;;;;4.90;76.30;;;;;;5476485;26;20410;-62
2024/04/24 03:46:59;;;;;;;;;;;4.90;76.40;;;;;;5476706;26;20366;-64
2024/04/24 03:49:29;;;;;;;;;;;4.90;76.40;;;;;;5482019;26;19936;-62
2024/04/24 03:51:58;;;;;;;;;;;4.90;76.40;;;;;;5476091;26;20317;-63
2024/04/24 03:54:26;;;;;;;;;;;4.90;76.40;;;;;;5480848;26;19935;-62
2024/04/24 03:56:55;;;;;;;;;;;4.90;76.50;;;;;;5481504;26;19928;-61
2024/04/24 03:59:24;;;;;;;;;;;4.90;76.60;;;;;;5480549;26;19950;-61
2024/04/24 04:01:58;;;;;;;;;;;4.90;76.70;;;;;;5474880;26;19940;-70
2024/04/24 04:04:26;;;;;;;;;;;4.90;76.90;;;;;;5476013;26;19928;-66
2024/04/24 04:06:55;;;;;;;;;;;4.80;76.90;;;;;;5483025;26;19976;-67
2024/04/24 04:09:24;;;;;;;;;;;4.90;77.10;;;;;;5479612;26;19928;-67
2024/04/24 04:11:53;;;;;;;;;;;4.90;77.20;;;;;;5477066;26;19943;-66
2024/04/24 04:14:21;;;;;;;;;;;4.90;77.30;;;;;;5478776;26;19943;-67
2024/04/24 04:16:47;;;;;;;;;;;4.90;77.50;;;;;;5481328;26;19928;-66
2024/04/24 04:19:20;;;;;;;;;;;4.90;77.40;;;;;;5482496;26;19978;-66
2024/04/24 04:21:51;;;;;;;;;;;4.90;77.30;;;;;;5481231;26;19999;-67
2024/04/24 04:24:20;;;;;;;;;;;4.90;77.40;;;;;;5486524;26;19960;-67
2024/04/24 04:26:48;;;;;;;;;;;4.90;77.60;;;;;;5475637;26;19982;-67
2024/04/24 04:29:17;;;;;;;;;;;4.90;77.70;;;;;;5477012;26;20903;-66
2024/04/24 04:31:46;;;;;;;;;;;4.90;77.90;;;;;;5479762;26;20258;-66
2024/04/24 04:34:15;;;;;;;;;;;4.90;78.00;;;;;;5484047;26;20017;-67
2024/04/24 04:36:46;;;;;;;;;;;4.90;77.70;;;;;;5480086;26;19944;-69
2024/04/24 04:39:43;;;;;;;;;;;5.00;77.70;;;;;;5483254;26;19936;-67
2024/04/24 04:42:11;;;;;;;;;;;5.00;77.90;;;;;;5455032;26;19946;-66
2024/04/24 04:44:40;;;;;;;;;;;5.00;77.90;;;;;;5476789;26;19935;-67
2024/04/24 04:47:09;;;;;;;;;;;5.10;77.90;;;;;;5478451;26;20022;-66
2024/04/24 04:49:38;;;;;;;;;;;5.10;77.90;;;;;;5481643;26;19928;-66
2024/04/24 04:52:09;;;;;;;;;;;5.00;78.20;;;;;;5484327;26;19935;-66
2024/04/24 04:57:46;;;;;;;;;;;5.00;78.20;;;;;;5474482;26;19936;-67
2024/04/24 05:00:15;;;;;;;;;;;4.90;78.80;;;;;;5480927;26;19928;-66
2024/04/24 05:02:44;;;;;;;;;;;4.90;79.00;;;;;;5477095;26;19928;-67
2024/04/24 05:05:13;;;;;;;;;;;4.90;79.60;;;;;;5481943;26;19935;-66
2024/04/24 05:11:30;;;;;;;;;;;4.90;79.80;;;;;;5476824;26;19935;-66
2024/04/24 05:13:59;;;;;;;;;;;5.00;80.10;;;;;;5480603;26;19953;-71
2024/04/24 05:16:27;;;;;;;;;;;5.00;80.00;;;;;;5476184;26;19928;-70
2024/04/24 05:18:56;;;;;;;;;;;5.00;80.00;;;;;;5467242;26;19928;-70
2024/04/24 05:21:24;;;;;;;;;;;5.00;80.00;;;;;;5480409;26;19928;-69
2024/04/24 05:23:53;;;;;;;;;;;5.00;80.10;;;;;;5483648;26;20391;-70
2024/04/24 05:29:14;;;;;;;;;;;5.10;80.20;;;;;;5480592;26;19938;-69
2024/04/24 05:31:43;;;;;;;;;;;5.20;79.90;;;;;;5474024;26;19928;-70
2024/04/24 05:34:13;;;;;;;;;;;5.20;80.10;;;;;;5481759;26;19997;-70
2024/04/24 05:36:41;;;;;;;;;;;5.20;80.00;;;;;;5483831;26;19935;-69
2024/04/24 05:39:13;;;;;;;;;;;5.30;79.90;;;;;;5480753;26;19928;-70
2024/04/24 05:41:41;;;;;;;;;;;5.30;79.80;;;;;;5474281;26;19936;-70
2024/04/24 05:44:10;;;;;;;;;;;5.40;79.80;;;;;;5472683;26;19928;-70
2024/04/24 05:46:41;;;;;;;;;;;5.40;80.00;;;;;;5478771;26;20003;-69
2024/04/24 05:49:10;;;;;;;;;;;5.40;79.70;;;;;;5479429;26;19927;-70
2024/04/24 05:51:39;;;;;;;;;;;5.40;79.50;;;;;;5479821;26;20367;-71
2024/04/24 05:54:11;;;;;;;;;;;5.50;79.10;;;;;;5478647;26;19928;-71
2024/04/24 05:56:39;;;;;;;;;;;5.50;79.20;;;;;;5483877;26;19980;-70
2024/04/24 05:59:13;;;;;;;;;;;5.50;79.00;;;;;;5482108;26;20000;-70
2024/04/24 06:01:44;;;;;;;;;;;5.50;79.30;;;;;;5480107;26;20941;-70
2024/04/24 06:04:13;;;;;;;;;;;5.60;78.80;;;;;;5480029;26;19936;-70
2024/04/24 06:06:42;;;;;;;;;;;5.60;79.00;;;;;;5471144;26;21137;-71
2024/04/24 06:09:14;;;;;;;;;;;5.70;78.50;;;;;;5474915;26;19935;-71
2024/04/24 06:11:42;;;;;;;;;;;5.70;79.10;;;;;;5472305;26;19942;-69
2024/04/24 06:14:11;;;;;;;;;;;5.70;78.20;;;;;;5473195;26;19939;-70
2024/04/24 06:16:40;;;;;;;;;;;5.70;79.00;;;;;;5478898;26;19940;-69
2024/04/24 06:19:15;;;;;;;;;;;5.70;78.80;;;;;;5479077;26;20004;-70
2024/04/24 06:21:44;;;;;;;;;;;5.70;79.20;;;;;;5477912;26;19936;-70
2024/04/24 06:24:14;;;;;;;;;;;5.70;79.10;;;;;;5484699;26;20322;-72
2024/04/24 06:26:43;;;;;;;;;;;5.70;79.20;;;;;;5476290;26;20360;-72
2024/04/24 06:29:15;;;;;;;;;;;5.80;78.70;;;;;;5473049;26;19962;-72
2024/04/24 06:31:46;;;;;;;;;;;5.90;78.80;;;;;;5477544;26;21207;-73
2024/04/24 06:34:18;;;;;;;;;;;5.90;79.00;;;;;;5480425;26;19975;-73
2024/04/24 06:36:46;;;;;;;;;;;6.00;78.20;;;;;;5476641;26;19928;-72
2024/04/24 06:39:15;;;;;;;;;;;6.00;78.30;;;;;;5478214;26;19968;-72
2024/04/24 06:41:43;;;;;;;;;;;6.10;78.50;;;;;;5478902;26;20137;-70
2024/04/24 06:44:14;;;;;;;;;;;6.10;77.90;;;;;;5471621;26;19947;-72
2024/04/24 06:46:43;;;;;;;;;;;6.20;78.40;;;;;;5477721;26;19935;-71
2024/04/24 06:49:13;;;;;;;;;;;6.20;78.50;;;;;;5480397;26;19935;-73
2024/04/24 06:51:44;;;;;;;;;;;6.20;77.80;;;;;;5480474;26;19991;-72
2024/04/24 06:54:13;;;;;;;;;;;6.30;77.90;;;;;;5477784;26;19946;-72
2024/04/24 06:56:42;;;;;;;;;;;6.30;77.80;;;;;;5475717;25;20598;-73
2024/04/24 06:59:11;;;;;;;;;;;6.30;78.00;;;;;;5482107;26;19996;-72
2024/04/24 07:01:39;;;;;;;;;;;6.40;78.10;;;;;;5475089;26;19928;-72
2024/04/24 07:04:12;;;;;;;;;;;6.60;77.80;;;;;;5473685;26;20372;-72
2024/04/24 07:06:40;;;;;;;;;;;6.60;77.60;;;;;;5480587;26;19928;-72
2024/04/24 07:09:16;;;;;;;;;;;6.70;77.20;;;;;;5478695;26;19943;-72
2024/04/24 07:11:44;;;;;;;;;;;6.70;77.20;;;;;;5477735;26;19940;-71
2024/04/24 07:14:13;;;;;;;;;;;6.80;77.60;;;;;;5480823;26;19973;-72
2024/04/24 07:16:42;;;;;;;;;;;6.90;78.20;;;;;;5478172;26;19943;-72
2024/04/24 07:19:12;;;;;;;;;;;7.00;77.80;;;;;;5476596;26;20620;-72
2024/04/24 07:21:41;;;;;;;;;;;7.00;77.80;;;;;;5478319;26;19933;-72
2024/04/24 07:24:16;;;;;;;;;;;7.20;77.70;;;;;;5484785;26;19928;-72
2024/04/24 07:26:44;;;;;;;;;;;7.60;77.80;;;;;;5476078;26;20364;-72
2024/04/24 07:29:15;;;;;;;;;;;7.70;77.00;;;;;;5479030;26;19935;-73
2024/04/24 07:31:44;;;;;;;;;;;7.60;76.60;;;;;;5482891;26;19928;-73
2024/04/24 07:34:13;;;;;;;;;;;7.70;76.50;;;;;;5486468;26;19935;-62
2024/04/24 07:36:41;;;;;;;;;;;7.70;75.90;;;;;;5482094;26;19928;-61
2024/04/24 07:39:10;;;;;;;;;;;7.80;75.60;;;;;;5481233;26;19940;-62
2024/04/24 07:41:42;;;;;;;;;;;8.00;75.20;;;;;;5480833;26;19928;-61
2024/04/24 07:44:12;;;;;;;;;;;8.00;74.60;;;;;;5482189;26;19935;-63
2024/04/24 07:46:40;;;;;;;;;;;8.10;74.40;;;;;;5474830;25;22245;-61
2024/04/24 07:49:09;;;;;;;;;;;8.10;74.40;;;;;;5482771;26;20003;-62
2024/04/24 07:51:37;;;;;;;;;;;8.20;73.70;;;;;;5480639;26;19928;-65
2024/04/24 07:54:14;;;;;;;;;;;8.30;73.20;;;;;;5478957;26;19971;-62
2024/04/24 07:56:45;;;;;;;;;;;8.40;72.90;;;;;;5481725;26;19996;-64
2024/04/24 07:59:14;;;;;;;;;;;8.60;72.50;;;;;;5481428;26;19928;-64
2024/04/24 08:01:43;;;;;;;;;;;8.60;72.20;;;;;;5480568;26;19927;-62
2024/04/24 08:04:13;;;;;;;;;;;8.60;71.90;;;;;;5479094;26;19956;-61
2024/04/24 08:06:41;;;;;;;;;;;8.50;71.90;;;;;;5480791;26;19981;-62
2024/04/24 08:09:12;;;;;;;;;;;8.50;71.60;;;;;;5479482;26;19936;-62
2024/04/24 08:11:50;;;;;;;;;;;8.50;71.50;;;;;;5483670;26;19928;-62
2024/04/24 08:14:19;;;;;;;;;;;8.60;71.40;;;;;;5478613;26;19932;-61
2024/04/24 08:16:47;;;;;;;;;;;8.70;70.70;;;;;;5482427;26;19944;-61
2024/04/24 08:19:16;;;;;;;;;;;8.80;70.40;;;;;;5479298;26;19968;-63
2024/04/24 08:21:45;;;;;;;;;;;8.90;70.30;;;;;;5481905;26;19928;-62
2024/04/24 08:24:15;;;;;;;;;;;9.00;70.20;;;;;;5481339;26;19928;-62
2024/04/24 08:26:43;;;;;;;;;;;9.10;70.30;;;;;;5483732;25;19938;-63
2024/04/24 08:29:16;;;;;;;;;;;9.20;69.90;;;;;;5472132;26;19948;-62
2024/04/24 08:31:44;;;;;;;;;;;9.20;69.30;;;;;;5469916;26;19939;-61
2024/04/24 08:34:13;;;;;;;;;;;9.30;69.00;;;;;;5482826;26;19940;-62
2024/04/24 08:36:42;;;;;;;;;;;9.30;68.80;;;;;;5481742;26;20000;-62
2024/04/24 08:39:14;;;;;;;;;;;9.20;68.90;;;;;;5475301;26;19935;-62
2024/04/24 08:41:43;;;;;;;;;;;9.10;68.80;;;;;;5482368;26;20274;-62
2024/04/24 08:44:16;;;;;;;;;;;9.00;68.90;;;;;;5462588;26;19935;-73
2024/04/24 08:46:45;;;;;;;;;;;8.90;69.20;;;;;;5474538;26;19935;-71
2024/04/24 08:49:14;;;;;;;;;;;8.70;69.80;;;;;;5475541;26;19940;-73
2024/04/24 08:51:44;;;;;;;;;;;8.50;70.70;;;;;;5483963;26;20696;-71
2024/04/24 08:54:14;;;;;;;;;;;8.30;71.50;;;;;;5480189;26;19935;-73
2024/04/24 08:56:46;;;;;;;;;;;8.20;72.10;;;;;;5481563;26;19978;-74
2024/04/24 08:59:21;;;;;;;;;;;8.30;72.10;;;;;;5477748;26;19937;-73
2024/04/24 09:01:55;;;;;;;;;;;8.40;72.30;;;;;;5482238;26;19939;-73
2024/04/24 09:04:25;;;;;;;;;;;8.60;72.30;;;;;;5476090;26;19956;-73
2024/04/24 09:06:54;;;;;;;;;;;8.70;72.40;;;;;;5479058;26;19928;-72
2024/04/24 09:09:23;;;;;;;;;;;8.80;72.70;;;;;;5480702;26;19936;-73
2024/04/24 09:11:52;;;;;;;;;;;9.00;72.60;;;;;;5484170;26;20026;-74
2024/04/24 09:14:24;;;;;;;;;;;9.10;72.70;;;;;;5476482;26;19974;-73
2024/04/24 09:16:53;;;;;;;;;;;9.20;72.50;;;;;;5481682;26;19928;-73
2024/04/24 09:19:23;;;;;;;;;;;9.20;71.60;;;;;;5482321;25;20001;-73
2024/04/24 09:21:52;;;;;;;;;;;9.30;71.50;;;;;;5478895;26;20387;-72
2024/04/24 09:24:21;;;;;;;;;;;9.50;71.20;;;;;;5507119;25;19928;-74
2024/04/24 09:26:50;;;;;;;;;;;9.70;70.70;;;;;;5481316;26;19939;-74
2024/04/24 09:29:20;;;;;;;;;;;9.90;70.60;;;;;;5481865;26;20374;-73
2024/04/24 09:31:51;;;;;;;;;;;9.90;70.20;;;;;;5471203;26;19935;-73
2024/04/24 09:34:20;;;;;;;;;;;10.10;70.00;;;;;;5483857;26;19928;-73
2024/04/24 09:36:49;;;;;;;;;;;10.10;70.10;;;;;;5480866;26;19939;-74
2024/04/24 09:39:16;;;;;;;;;;;10.10;69.40;;;;;;5478932;26;19928;-73
2024/04/24 09:41:45;;;;;;;;;;;10.00;69.40;;;;;;5478512;26;19928;-74
2024/04/24 09:44:14;;;;;;;;;;;9.80;69.20;;;;;;5481168;26;19935;-73
2024/04/24 09:46:47;;;;;;;;;;;9.70;69.00;;;;;;5476174;26;19989;-73
2024/04/24 09:49:23;;;;;;;;;;;9.60;69.20;;;;;;5481279;25;19932;-73
2024/04/24 09:51:52;;;;;;;;;;;9.60;68.90;;;;;;5467360;26;19936;-71
2024/04/24 09:54:23;;;;;;;;;;;9.60;68.90;;;;;;5478992;26;19927;-63
2024/04/24 09:56:56;;;;;;;;;;;9.50;68.80;;;;;;5476055;26;19935;-63
2024/04/24 09:59:30;;;;;;;;;;;9.30;68.90;;;;;;5478046;25;20215;-62
2024/04/24 10:02:02;;;;;;;;;;;9.10;69.40;;;;;;5479931;26;19939;-63
2024/04/24 10:04:39;;;;;;;;;;;8.90;69.50;;;;;;5475981;26;19939;-62
2024/04/24 10:07:10;;;;;;;;;;;8.80;70.00;;;;;;5479303;26;19928;-63
2024/04/24 10:09:41;;;;;;;;;;;8.70;69.60;;;;;;5478229;26;20293;-63
2024/04/24 10:12:14;;;;;;;;;;;8.70;69.70;;;;;;5472836;26;19944;-62
2024/04/24 10:14:47;;;;;;;;;;;8.70;69.20;;;;;;5453203;26;20690;-63
2024/04/24 10:17:16;;;;;;;;;;;8.60;69.00;;;;;;5457845;26;19928;-63
2024/04/24 10:19:49;;;;;;;;;;;8.60;69.00;;;;;;5443183;26;20368;-64
2024/04/24 10:22:18;;;;;;;;;;;8.50;69.20;;;;;;5467469;26;19995;-65
2024/04/24 10:24:50;;;;;;;;;;;8.50;69.50;;;;;;5482560;26;19928;-63
2024/04/24 10:30:40;;;;;;;;;;;8.70;69.70;;;;;;5435332;26;19928;-61
2024/04/24 10:33:10;;;;;;;;;;;9.20;69.60;;;;;;5438717;26;19935;-63
2024/04/24 10:35:41;;;;;;;;;;;9.30;69.30;;;;;;5451394;26;19937;-64
2024/04/24 10:38:10;;;;;;;;;;;9.30;69.10;;;;;;5457528;26;20366;-63
2024/04/24 10:40:39;;;;;;;;;;;9.40;68.80;;;;;;5442830;26;19928;-62
2024/04/24 10:46:13;;;;;;;;;;;9.60;68.50;;;;;;5476989;26;19935;-61
2024/04/24 10:48:56;;;;;;;;;;;9.50;68.50;;;;;;5473746;26;19943;-63
2024/04/24 10:51:34;;;;;;;;;;;9.50;68.90;;;;;;5475403;26;19969;-61
2024/04/24 10:54:13;;;;;;;;;;;9.90;68.60;;;;;;5480438;26;20271;-63
2024/04/24 10:57:01;;;;;;;;;;;10.30;68.00;;;;;;5473542;26;20361;-61
2024/04/24 11:00:12;;;;;;;;;;;10.70;67.40;;;;;;5455248;26;19936;-63
2024/04/24 11:02:42;;;;;;;;;;;11.10;66.80;;;;;;5470106;26;19944;-62
2024/04/24 11:05:11;;;;;;;;;;;11.30;65.90;;;;;;5456308;26;19928;-63
2024/04/24 11:07:43;;;;;;;;;;;11.40;65.00;;;;;;5459725;26;20004;-63
2024/04/24 11:10:10;;;;;;;;;;;11.70;64.80;;;;;;5486990;26;19935;-62
2024/04/24 11:12:39;;;;;;;;;;;11.80;63.60;;;;;;5483350;26;19932;-62
2024/04/24 11:15:08;;;;;;;;;;;11.80;63.30;;;;;;5480779;26;20022;-64
2024/04/24 11:17:37;;;;;;;;;;;11.80;63.40;;;;;;5485755;26;19928;-62
2024/04/24 11:20:09;;;;;;;;;;;11.90;62.80;;;;;;5485973;26;20417;-63
2024/04/24 12:15:05;;;;;;;;;;;10.80;60.00;;;;;;5471424;26;20472;-62
2024/04/24 12:17:34;;;;;;;;;;;10.90;59.70;;;;;;5480978;26;19935;-62
2024/04/24 12:20:03;;;;;;;;;;;11.10;59.90;;;;;;5483238;26;19957;-62
2024/04/24 12:22:31;;;;;;;;;;;11.30;59.70;;;;;;5481833;26;19940;-62
2024/04/24 12:32:15;;;;;;;;;;;11.40;59.80;;;;;;5460924;26;19934;-62
2024/04/24 12:34:44;;;;;;;;;;;11.70;59.30;;;;;;5462948;26;19928;-63
2024/04/24 12:37:13;;;;;;;;;;;11.70;59.00;;;;;;5484546;26;19999;-62
2024/04/24 12:39:42;;;;;;;;;;;11.70;57.50;;;;;;5484425;26;20585;-62
2024/04/24 12:42:11;;;;;;;;;;;11.70;56.90;;;;;;5482931;26;19928;-62
2024/04/24 12:51:54;;;;;;;;;;;11.50;56.20;;;;;;5443614;26;20000;-63
2024/04/24 12:54:23;;;;;;;;;;;11.40;56.40;;;;;;5463148;26;19954;-63
2024/04/24 12:56:52;;;;;;;;;;;11.40;57.10;;;;;;5481586;26;19936;-64
2024/04/24 12:59:20;;;;;;;;;;;11.50;56.10;;;;;;5479023;26;19968;-61
2024/04/24 13:01:49;;;;;;;;;;;11.40;56.30;;;;;;5477403;26;20019;-61
2024/04/24 13:04:18;;;;;;;;;;;11.50;56.10;;;;;;5473257;26;19984;-61
2024/04/24 13:06:47;;;;;;;;;;;11.50;56.10;;;;;;5490831;26;20731;-60
2024/04/24 13:09:22;;;;;;;;;;;11.50;56.40;;;;;;5487000;26;19928;-62
2024/04/24 13:11:51;;;;;;;;;;;11.60;56.10;;;;;;5491790;26;19928;-62
2024/04/24 13:14:20;;;;;;;;;;;11.70;55.90;;;;;;5488438;26;20020;-62
2024/04/24 13:16:50;;;;;;;;;;;11.70;55.80;;;;;;5489052;26;19928;-62
2024/04/24 13:19:19;;;;;;;;;;;11.70;55.80;;;;;;5476094;26;19942;-61
2024/04/24 13:21:47;;;;;;;;;;;11.70;56.20;;;;;;5481937;26;19936;-62
2024/04/24 13:24:19;;;;;;;;;;;11.60;56.60;;;;;;5480952;26;20450;-62
2024/04/24 13:26:48;;;;;;;;;;;11.60;56.70;;;;;;5479728;26;19944;-62
2024/04/24 13:29:16;;;;;;;;;;;11.60;56.30;;;;;;5475605;26;20004;-61
2024/04/24 13:31:45;;;;;;;;;;;11.60;56.70;;;;;;5480766;26;19932;-62
2024/04/24 13:45:02;;;;;;;2.97;1.27;;;11.70;56.60;;;;;;5427593;25;20450;-61
2024/04/24 13:47:31;;;;;;;5.97;1.30;;;11.30;57.50;;;;;;5410516;26;20015;-60
2024/04/24 13:50:00;;;;;;;2.70;1.00;;;11.20;57.40;;;;;;5414118;26;20329;-62
2024/04/24 13:52:29;;;;;;;2.42;0.90;;;11.10;57.90;;;;;;5415654;26;20702;-62
2024/04/24 13:54:58;;;;;;;2.25;0.65;;;10.80;59.60;;;;;;5413668;26;20019;-62
2024/04/24 13:57:27;;;;;;;2.42;0.77;;;10.50;60.30;;;;;;5411473;26;20003;-62
2024/04/24 13:59:56;;;;;;;2.83;0.63;;;10.30;61.00;;;;;;5409623;26;20003;-62
2024/04/24 14:02:28;;;;;;;2.85;0.80;;;10.20;61.60;;;;;;5411796;26;20633;-62
2024/04/24 14:04:57;;;;;;;1.63;0.52;;;10.20;62.00;;;;;;5411303;26;20012;-62
2024/04/24 14:07:26;;;;;;;4.38;0.70;;;10.10;62.30;;;;;;5409688;26;20019;-62
2024/04/24 14:09:55;;;;;;;1.77;0.70;;;9.90;64.00;;;;;;5403625;26;20019;-62
2024/04/24 14:12:25;;;;;;;2.20;0.73;;;9.80;64.80;;;;;;5408964;26;20068;-62
2024/04/24 14:14:54;;;;;;;2.10;0.80;;;9.60;65.60;;;;;;5411131;26;20018;-62
2024/04/24 14:17:23;;;;;;;2.95;0.60;;;9.50;65.90;;;;;;5409578;26;20354;-62
2024/04/24 14:19:55;;;;;;;3.03;0.90;;;9.40;66.20;;;;;;5404149;26;20040;-62
2024/04/24 14:22:24;;;;;;;3.75;0.82;;;9.20;66.50;;;;;;5407379;26;20011;-62
2024/04/24 14:24:53;;;;;;;1.65;0.65;;;9.20;67.10;;;;;;5406312;26;20563;-62
2024/04/24 14:27:22;;;;;;;1.13;0.47;;;9.20;67.60;;;;;;5408539;26;20022;-62
2024/04/24 14:29:51;;;;;;;1.38;0.40;;;9.20;68.40;;;;;;5405653;26;20008;-62
2024/04/24 14:32:20;;;;;;;1.35;0.40;;;9.30;69.10;;;;;;5405150;26;20019;-62
2024/04/24 14:34:49;;;;;;;1.63;0.68;;;9.40;69.60;;;;;;5403838;26;20008;-62
2024/04/24 14:37:21;;;;;;;2.95;1.08;;;9.40;69.30;;;;;;5409373;26;20349;-62
2024/04/24 14:39:50;;;;;;;4.00;1.10;;;9.30;69.70;;;;;;5406445;26;20043;-62
2024/04/24 14:42:20;;;;;;;2.92;0.80;;;9.30;70.40;;;;;;5400848;26;20018;-61
2024/04/24 14:44:50;;;;;;;1.73;0.55;;;9.20;71.10;;;;;;5399072;26;20012;-62
2024/04/24 14:47:19;;;;;;;1.83;0.60;;;9.20;71.30;;;;;;5393039;26;20022;-62
2024/04/24 14:49:48;;;;;;;2.88;0.88;;;9.20;71.40;;;;;;5389599;26;20019;-61
2024/04/24 14:52:20;;;;;;;2.00;0.90;;;9.20;72.60;;;;;;5394574;26;20481;-62
2024/04/24 14:54:50;;;;;;;2.45;0.70;;;9.20;73.30;;;;;;5390058;26;20001;-62
2024/04/24 14:57:19;;;;;;;3.33;0.68;;;9.30;73.70;;;;;;5389596;26;20004;-62
2024/04/24 14:59:48;;;;;;;1.70;0.60;;;9.30;73.40;;;;;;5390746;26;20356;-61
2024/04/24 15:02:17;;;;;;;2.33;0.68;;;9.30;73.40;;;;;;5393978;26;20016;-62
2024/04/24 15:04:46;;;;;;;0.90;0.60;;;9.40;73.10;;;;;;5386747;26;20004;-62
2024/04/24 15:07:26;;;;;;;;;;;;;;;;;;;;;
2024/04/24 15:09:59;;;;;;;1.45;0.50;;;9.30;72.10;;;;;;5387095;26;20043;-62
2024/04/24 15:12:28;;;;;;;1.60;0.70;;;9.40;71.80;;;;;;5388082;26;20132;-62
2024/04/24 15:14:57;;;;;;;1.48;0.63;;;9.40;71.70;;;;;;5389412;26;20039;-62
2024/04/24 15:17:25;;;;;;;2.13;0.80;;;9.50;71.70;;;;;;5391302;26;20019;-62
2024/04/24 15:19:55;;;;;;;2.17;0.60;;;9.60;71.80;;;;;;5390484;26;20003;-60
2024/04/24 15:22:24;;;;;;;2.05;1.00;;;9.70;71.90;;;;;;5394513;26;20000;-62
2024/04/24 15:24:53;;;;;;;3.03;1.10;;;9.70;72.00;;;;;;5393557;26;20019;-62
2024/04/24 15:27:25;;;;;;;3.17;0.80;;;9.70;71.20;;;;;;5392972;26;20077;-62
2024/04/24 15:29:54;;;;;;;1.15;0.60;;;9.90;70.50;;;;;;5390293;26;20042;-62
2024/04/24 15:32:23;;;;;;;3.47;1.27;;;9.90;69.90;;;;;;5390536;26;20341;-62
2024/04/24 15:34:53;;;;;;;2.15;0.98;;;9.90;69.80;;;;;;5394187;26;20008;-62
2024/04/24 15:37:22;;;;;;;2.38;1.02;;;10.00;69.80;;;;;;5390339;26;20023;-62
2024/04/24 15:39:51;;;;;;;3.90;1.00;;;10.10;69.70;;;;;;5395475;26;20019;-61
2024/04/24 15:42:20;;;;;;;1.30;0.80;;;10.10;69.80;;;;;;5390505;26;20076;-61
2024/04/24 15:44:52;;;;;;;2.40;0.80;;;10.20;69.70;;;;;;5393059;26;20077;-61
2024/04/24 15:47:21;;;;;;;3.42;1.50;;;10.20;69.20;;;;;;5392036;26;20007;-60
2024/04/24 15:49:50;;;;;;;2.47;1.07;;;10.20;68.60;;;;;;5387348;26;20480;-63
2024/04/24 15:52:19;;;;;;;5.22;1.23;;;10.20;68.00;;;;;;5386144;26;20048;-59
2024/04/24 15:54:49;;;;;;;3.53;1.33;;;10.20;67.60;;;;;;5389900;26;20047;-62
2024/04/24 15:57:18;;;;;;;3.80;1.17;;;10.10;67.40;;;;;;5395745;26;20005;-61
2024/04/24 15:59:47;;;;;;;4.07;1.00;;;10.00;67.60;;;;;;5394164;26;20003;-62
2024/04/24 16:02:19;;;;;;;3.90;1.00;;;9.90;68.00;;;;;;5394853;26;20003;-62
2024/04/24 16:04:48;;;;;;;3.03;1.20;;;9.90;67.80;;;;;;5382872;26;20004;-62
2024/04/24 16:07:17;;;;;;;2.47;1.10;;;9.90;68.00;;;;;;5392962;26;20019;-61
2024/04/24 16:09:46;;;;;;;3.10;1.20;;;9.90;67.90;;;;;;5389687;26;22380;-60